sensor_id;sensor_type;location;lat;lon;timestamp;P1;durP1;ratioP1;P2;durP2;ratioP2
9809;SDS011;4944;52.514;13.192;2023-02-15T00:01:42;22.80;;;16.33;;
9809;SDS011;4944;52.514;13.192;2023-02-15T00:04:11;21.90;;;15.67;;
9809;SDS011;4944;52.514;13.192;2023-02-15T00:06:40;20.57;;;15.17;;
9809;SDS011;4944;52.514;13.192;2023-02-15T00:09:09;20.53;;;14.87;;
9809;SDS011;4944;52.514;13.192;2023-02-15T00:11:37;18.43;;;14.27;;
9809;SDS011;4944;52.514;13.192;2023-02-15T00:14:08;19.93;;;14.17;;
9809;SDS011;4944;52.514;13.192;2023-02-15T00:16:37;19.13;;;14.60;;
9809;SDS011;4944;52.514;13.192;2023-02-15T00:19:05;22.57;;;15.73;;
9809;SDS011;4944;52.514;13.192;2023-02-15T00:21:33;20.70;;;14.10;;
9809;SDS011;4944;52.514;13.192;2023-02-15T00:24:01;19.17;;;14.30;;
9809;SDS011;4944;52.514;13.192;2023-02-15T00:26:31;20.27;;;15.20;;
9809;SDS011;4944;52.514;13.192;2023-02-15T00:28:59;20.30;;;14.23;;
9809;SDS011;4944;52.514;13.192;2023-02-15T00:31:27;17.83;;;13.70;;
9809;SDS011;4944;52.514;13.192;2023-02-15T00:33:55;21.73;;;14.63;;
9809;SDS011;4944;52.514;13.192;2023-02-15T00:36:26;21.40;;;14.20;;
9809;SDS011;4944;52.514;13.192;2023-02-15T00:38:53;18.57;;;13.50;;
9809;SDS011;4944;52.514;13.192;2023-02-15T00:41:20;19.63;;;14.07;;
9809;SDS011;4944;52.514;13.192;2023-02-15T00:43:48;20.90;;;14.43;;
9809;SDS011;4944;52.514;13.192;2023-02-15T00:46:15;19.47;;;14.10;;
9809;SDS011;4944;52.514;13.192;2023-02-15T00:48:42;20.03;;;14.23;;
9809;SDS011;4944;52.514;13.192;2023-02-15T00:51:09;19.43;;;13.13;;
9809;SDS011;4944;52.514;13.192;2023-02-15T00:53:36;19.33;;;13.73;;
9809;SDS011;4944;52.514;13.192;2023-02-15T00:56:03;20.20;;;13.70;;
9809;SDS011;4944;52.514;13.192;2023-02-15T00:58:30;19.47;;;14.07;;
9809;SDS011;4944;52.514;13.192;2023-02-15T01:01:03;18.43;;;13.33;;
9809;SDS011;4944;52.514;13.192;2023-02-15T01:03:31;20.63;;;13.53;;
9809;SDS011;4944;52.514;13.192;2023-02-15T01:05:59;19.83;;;14.20;;
9809;SDS011;4944;52.514;13.192;2023-02-15T01:08:26;18.43;;;13.47;;
9809;SDS011;4944;52.514;13.192;2023-02-15T01:10:53;17.53;;;12.90;;
9809;SDS011;4944;52.514;13.192;2023-02-15T01:13:21;19.97;;;14.47;;
9809;SDS011;4944;52.514;13.192;2023-02-15T01:15:52;19.33;;;13.93;;
9809;SDS011;4944;52.514;13.192;2023-02-15T01:18:20;19.77;;;13.33;;
9809;SDS011;4944;52.514;13.192;2023-02-15T01:20:48;21.07;;;14.37;;
9809;SDS011;4944;52.514;13.192;2023-02-15T01:23:15;21.03;;;14.07;;
9809;SDS011;4944;52.514;13.192;2023-02-15T01:25:42;19.97;;;13.63;;
9809;SDS011;4944;52.514;13.192;2023-02-15T01:28:10;19.43;;;13.57;;
9809;SDS011;4944;52.514;13.192;2023-02-15T01:30:37;20.33;;;14.33;;
9809;SDS011;4944;52.514;13.192;2023-02-15T01:33:04;20.53;;;13.87;;
9809;SDS011;4944;52.514;13.192;2023-02-15T01:35:32;20.50;;;14.00;;
9809;SDS011;4944;52.514;13.192;2023-02-15T01:38:02;19.47;;;14.37;;
9809;SDS011;4944;52.514;13.192;2023-02-15T01:40:29;18.93;;;13.80;;
9809;SDS011;4944;52.514;13.192;2023-02-15T01:42:56;16.40;;;13.20;;
9809;SDS011;4944;52.514;13.192;2023-02-15T01:45:24;23.60;;;15.10;;
9809;SDS011;4944;52.514;13.192;2023-02-15T01:47:54;19.50;;;14.30;;
9809;SDS011;4944;52.514;13.192;2023-02-15T01:50:25;20.37;;;13.70;;
9809;SDS011;4944;52.514;13.192;2023-02-15T01:52:57;19.23;;;13.30;;
9809;SDS011;4944;52.514;13.192;2023-02-15T01:55:29;21.23;;;14.23;;
9809;SDS011;4944;52.514;13.192;2023-02-15T01:57:59;20.00;;;14.30;;
9809;SDS011;4944;52.514;13.192;2023-02-15T02:00:27;19.53;;;14.00;;
9809;SDS011;4944;52.514;13.192;2023-02-15T02:02:54;18.00;;;13.57;;
9809;SDS011;4944;52.514;13.192;2023-02-15T02:05:22;19.83;;;14.03;;
9809;SDS011;4944;52.514;13.192;2023-02-15T02:07:51;19.93;;;14.03;;
9809;SDS011;4944;52.514;13.192;2023-02-15T02:13:09;19.80;;;13.87;;
9809;SDS011;4944;52.514;13.192;2023-02-15T02:19:32;18.13;;;13.17;;
9809;SDS011;4944;52.514;13.192;2023-02-15T02:22:44;18.67;;;13.53;;
9809;SDS011;4944;52.514;13.192;2023-02-15T02:25:36;21.33;;;14.80;;
9809;SDS011;4944;52.514;13.192;2023-02-15T02:28:31;18.73;;;13.87;;
9809;SDS011;4944;52.514;13.192;2023-02-15T02:31:24;21.10;;;14.80;;
9809;SDS011;4944;52.514;13.192;2023-02-15T02:34:07;20.33;;;14.03;;
9809;SDS011;4944;52.514;13.192;2023-02-15T02:36:41;24.23;;;15.50;;
9809;SDS011;4944;52.514;13.192;2023-02-15T02:39:17;20.97;;;14.37;;
9809;SDS011;4944;52.514;13.192;2023-02-15T02:41:58;21.77;;;15.17;;
9809;SDS011;4944;52.514;13.192;2023-02-15T02:44:31;20.43;;;14.13;;
9809;SDS011;4944;52.514;13.192;2023-02-15T02:47:05;21.20;;;14.40;;
9809;SDS011;4944;52.514;13.192;2023-02-15T02:49:37;19.03;;;13.63;;
9809;SDS011;4944;52.514;13.192;2023-02-15T02:52:06;21.07;;;14.83;;
9809;SDS011;4944;52.514;13.192;2023-02-15T02:54:49;19.53;;;14.60;;
9809;SDS011;4944;52.514;13.192;2023-02-15T02:57:15;21.10;;;14.43;;
9809;SDS011;4944;52.514;13.192;2023-02-15T02:59:44;19.30;;;14.43;;
9809;SDS011;4944;52.514;13.192;2023-02-15T03:02:15;20.20;;;14.83;;
9809;SDS011;4944;52.514;13.192;2023-02-15T03:04:49;19.47;;;14.33;;
9809;SDS011;4944;52.514;13.192;2023-02-15T03:07:23;22.97;;;15.63;;
9809;SDS011;4944;52.514;13.192;2023-02-15T03:09:54;21.37;;;15.10;;
9809;SDS011;4944;52.514;13.192;2023-02-15T03:12:23;22.87;;;16.00;;
9809;SDS011;4944;52.514;13.192;2023-02-15T03:14:55;21.83;;;15.40;;
9809;SDS011;4944;52.514;13.192;2023-02-15T03:17:27;21.67;;;15.17;;
9809;SDS011;4944;52.514;13.192;2023-02-15T03:20:00;22.83;;;16.40;;
9809;SDS011;4944;52.514;13.192;2023-02-15T03:22:30;24.83;;;16.73;;
9809;SDS011;4944;52.514;13.192;2023-02-15T03:25:02;22.40;;;15.80;;
9809;SDS011;4944;52.514;13.192;2023-02-15T03:27:33;24.17;;;16.60;;
9809;SDS011;4944;52.514;13.192;2023-02-15T03:30:05;26.70;;;18.47;;
9809;SDS011;4944;52.514;13.192;2023-02-15T03:32:33;21.97;;;16.67;;
9809;SDS011;4944;52.514;13.192;2023-02-15T03:35:04;24.50;;;16.90;;
9809;SDS011;4944;52.514;13.192;2023-02-15T03:37:32;28.00;;;17.40;;
9809;SDS011;4944;52.514;13.192;2023-02-15T03:40:06;24.27;;;17.27;;
9809;SDS011;4944;52.514;13.192;2023-02-15T03:46:14;26.83;;;17.47;;
9809;SDS011;4944;52.514;13.192;2023-02-15T03:48:47;28.27;;;18.80;;
9809;SDS011;4944;52.514;13.192;2023-02-15T03:51:19;26.57;;;18.30;;
9809;SDS011;4944;52.514;13.192;2023-02-15T03:54:02;28.80;;;18.40;;
9809;SDS011;4944;52.514;13.192;2023-02-15T03:56:33;26.33;;;18.13;;
9809;SDS011;4944;52.514;13.192;2023-02-15T03:59:02;27.70;;;19.13;;
9809;SDS011;4944;52.514;13.192;2023-02-15T04:01:48;27.80;;;18.53;;
9809;SDS011;4944;52.514;13.192;2023-02-15T04:04:33;28.40;;;19.23;;
9809;SDS011;4944;52.514;13.192;2023-02-15T04:07:03;29.87;;;20.00;;
9809;SDS011;4944;52.514;13.192;2023-02-15T04:09:31;30.70;;;21.10;;
9809;SDS011;4944;52.514;13.192;2023-02-15T04:12:15;33.10;;;19.90;;
9809;SDS011;4944;52.514;13.192;2023-02-15T04:14:42;32.80;;;20.20;;
9809;SDS011;4944;52.514;13.192;2023-02-15T04:17:27;32.40;;;20.93;;
9809;SDS011;4944;52.514;13.192;2023-02-15T04:19:54;35.83;;;21.67;;
9809;SDS011;4944;52.514;13.192;2023-02-15T04:22:40;33.50;;;21.00;;
9809;SDS011;4944;52.514;13.192;2023-02-15T04:25:24;33.73;;;21.87;;
9809;SDS011;4944;52.514;13.192;2023-02-15T04:27:51;32.80;;;21.37;;
9809;SDS011;4944;52.514;13.192;2023-02-15T04:30:20;37.13;;;22.53;;
9809;SDS011;4944;52.514;13.192;2023-02-15T04:32:48;32.90;;;20.03;;
9809;SDS011;4944;52.514;13.192;2023-02-15T04:35:16;33.03;;;21.20;;
9809;SDS011;4944;52.514;13.192;2023-02-15T04:37:45;34.23;;;20.57;;
9809;SDS011;4944;52.514;13.192;2023-02-15T04:40:12;33.73;;;21.73;;
9809;SDS011;4944;52.514;13.192;2023-02-15T04:42:40;35.40;;;21.57;;
9809;SDS011;4944;52.514;13.192;2023-02-15T04:45:07;31.83;;;20.57;;
9809;SDS011;4944;52.514;13.192;2023-02-15T04:47:34;33.67;;;21.07;;
9809;SDS011;4944;52.514;13.192;2023-02-15T04:50:01;35.70;;;20.07;;
9809;SDS011;4944;52.514;13.192;2023-02-15T04:52:28;30.50;;;19.50;;
9809;SDS011;4944;52.514;13.192;2023-02-15T04:54:56;34.00;;;21.00;;
9809;SDS011;4944;52.514;13.192;2023-02-15T04:57:23;32.77;;;21.17;;
9809;SDS011;4944;52.514;13.192;2023-02-15T04:59:50;31.97;;;20.37;;
9809;SDS011;4944;52.514;13.192;2023-02-15T05:02:16;35.70;;;21.27;;
9809;SDS011;4944;52.514;13.192;2023-02-15T05:04:43;33.77;;;20.97;;
9809;SDS011;4944;52.514;13.192;2023-02-15T05:07:10;33.77;;;21.30;;
9809;SDS011;4944;52.514;13.192;2023-02-15T05:09:37;34.50;;;21.40;;
9809;SDS011;4944;52.514;13.192;2023-02-15T05:12:06;32.20;;;20.50;;
9809;SDS011;4944;52.514;13.192;2023-02-15T05:14:33;33.77;;;21.20;;
9809;SDS011;4944;52.514;13.192;2023-02-15T05:16:59;32.90;;;20.93;;
9809;SDS011;4944;52.514;13.192;2023-02-15T05:19:28;34.77;;;20.87;;
9809;SDS011;4944;52.514;13.192;2023-02-15T05:21:55;32.67;;;20.17;;
9809;SDS011;4944;52.514;13.192;2023-02-15T05:24:22;35.57;;;21.57;;
9809;SDS011;4944;52.514;13.192;2023-02-15T05:27:11;34.23;;;20.13;;
9809;SDS011;4944;52.514;13.192;2023-02-15T05:29:56;33.37;;;21.30;;
9809;SDS011;4944;52.514;13.192;2023-02-15T05:32:23;35.27;;;21.00;;
9809;SDS011;4944;52.514;13.192;2023-02-15T05:34:49;34.53;;;20.80;;
9809;SDS011;4944;52.514;13.192;2023-02-15T05:37:16;36.70;;;21.50;;
9809;SDS011;4944;52.514;13.192;2023-02-15T05:39:43;31.60;;;20.90;;
9809;SDS011;4944;52.514;13.192;2023-02-15T05:42:11;36.93;;;21.80;;
9809;SDS011;4944;52.514;13.192;2023-02-15T05:44:38;31.90;;;20.70;;
9809;SDS011;4944;52.514;13.192;2023-02-15T05:47:05;34.57;;;20.20;;
9809;SDS011;4944;52.514;13.192;2023-02-15T05:49:33;33.07;;;20.43;;
9809;SDS011;4944;52.514;13.192;2023-02-15T05:52:00;31.97;;;20.07;;
9809;SDS011;4944;52.514;13.192;2023-02-15T05:54:27;36.97;;;21.97;;
9809;SDS011;4944;52.514;13.192;2023-02-15T05:56:54;36.53;;;22.50;;
9809;SDS011;4944;52.514;13.192;2023-02-15T05:59:22;33.03;;;21.57;;
9809;SDS011;4944;52.514;13.192;2023-02-15T06:01:49;39.77;;;21.97;;
9809;SDS011;4944;52.514;13.192;2023-02-15T06:04:16;37.20;;;21.40;;
9809;SDS011;4944;52.514;13.192;2023-02-15T06:06:43;38.67;;;22.43;;
9809;SDS011;4944;52.514;13.192;2023-02-15T06:09:10;35.13;;;21.37;;
9809;SDS011;4944;52.514;13.192;2023-02-15T06:11:37;33.33;;;21.13;;
9809;SDS011;4944;52.514;13.192;2023-02-15T06:14:04;35.80;;;20.97;;
9809;SDS011;4944;52.514;13.192;2023-02-15T06:16:32;37.53;;;21.93;;
9809;SDS011;4944;52.514;13.192;2023-02-15T06:18:59;34.20;;;20.77;;
9809;SDS011;4944;52.514;13.192;2023-02-15T06:21:27;35.23;;;22.30;;
9809;SDS011;4944;52.514;13.192;2023-02-15T06:23:53;34.30;;;20.13;;
9809;SDS011;4944;52.514;13.192;2023-02-15T06:26:20;35.03;;;22.27;;
9809;SDS011;4944;52.514;13.192;2023-02-15T06:28:47;36.13;;;21.70;;
9809;SDS011;4944;52.514;13.192;2023-02-15T06:31:14;35.33;;;20.90;;
9809;SDS011;4944;52.514;13.192;2023-02-15T06:33:42;34.77;;;20.27;;
9809;SDS011;4944;52.514;13.192;2023-02-15T06:36:09;38.53;;;21.27;;
9809;SDS011;4944;52.514;13.192;2023-02-15T06:38:37;35.33;;;21.50;;
9809;SDS011;4944;52.514;13.192;2023-02-15T06:41:04;32.50;;;20.23;;
9809;SDS011;4944;52.514;13.192;2023-02-15T06:43:31;35.30;;;21.20;;
9809;SDS011;4944;52.514;13.192;2023-02-15T06:45:59;34.60;;;20.07;;
9809;SDS011;4944;52.514;13.192;2023-02-15T06:48:26;36.50;;;20.80;;
9809;SDS011;4944;52.514;13.192;2023-02-15T06:50:54;30.03;;;19.67;;
9809;SDS011;4944;52.514;13.192;2023-02-15T06:53:21;34.27;;;21.00;;
9809;SDS011;4944;52.514;13.192;2023-02-15T06:55:48;35.70;;;20.17;;
9809;SDS011;4944;52.514;13.192;2023-02-15T06:58:15;35.33;;;20.10;;
9809;SDS011;4944;52.514;13.192;2023-02-15T07:00:42;35.63;;;20.23;;
9809;SDS011;4944;52.514;13.192;2023-02-15T07:03:09;33.57;;;20.73;;
9809;SDS011;4944;52.514;13.192;2023-02-15T07:05:35;32.67;;;20.00;;
9809;SDS011;4944;52.514;13.192;2023-02-15T07:08:04;35.87;;;20.33;;
9809;SDS011;4944;52.514;13.192;2023-02-15T07:10:31;31.70;;;19.77;;
9809;SDS011;4944;52.514;13.192;2023-02-15T07:12:57;32.73;;;20.23;;
9809;SDS011;4944;52.514;13.192;2023-02-15T07:15:23;35.13;;;20.93;;
9809;SDS011;4944;52.514;13.192;2023-02-15T07:17:50;36.33;;;19.33;;
9809;SDS011;4944;52.514;13.192;2023-02-15T07:20:17;33.17;;;19.93;;
9809;SDS011;4944;52.514;13.192;2023-02-15T07:22:46;33.47;;;19.97;;
9809;SDS011;4944;52.514;13.192;2023-02-15T07:25:15;31.83;;;19.47;;
9809;SDS011;4944;52.514;13.192;2023-02-15T07:27:43;32.30;;;19.83;;
9809;SDS011;4944;52.514;13.192;2023-02-15T07:30:10;32.50;;;20.13;;
9809;SDS011;4944;52.514;13.192;2023-02-15T07:32:39;30.97;;;19.77;;
9809;SDS011;4944;52.514;13.192;2023-02-15T07:35:26;30.10;;;18.23;;
9809;SDS011;4944;52.514;13.192;2023-02-15T07:37:53;27.13;;;18.07;;
9809;SDS011;4944;52.514;13.192;2023-02-15T07:40:22;30.50;;;18.77;;
9809;SDS011;4944;52.514;13.192;2023-02-15T07:42:49;32.67;;;19.10;;
9809;SDS011;4944;52.514;13.192;2023-02-15T07:45:19;31.33;;;18.97;;
9809;SDS011;4944;52.514;13.192;2023-02-15T07:47:46;35.50;;;19.87;;
9809;SDS011;4944;52.514;13.192;2023-02-15T07:50:13;27.10;;;17.87;;
9809;SDS011;4944;52.514;13.192;2023-02-15T07:52:40;25.87;;;17.07;;
9809;SDS011;4944;52.514;13.192;2023-02-15T07:55:07;26.67;;;16.90;;
9809;SDS011;4944;52.514;13.192;2023-02-15T07:57:39;24.73;;;17.10;;
9809;SDS011;4944;52.514;13.192;2023-02-15T08:00:09;26.73;;;17.40;;
9809;SDS011;4944;52.514;13.192;2023-02-15T08:02:38;24.77;;;16.37;;
9809;SDS011;4944;52.514;13.192;2023-02-15T08:05:05;24.30;;;16.57;;
9809;SDS011;4944;52.514;13.192;2023-02-15T08:07:32;25.00;;;16.63;;
9809;SDS011;4944;52.514;13.192;2023-02-15T08:09:59;22.93;;;16.80;;
9809;SDS011;4944;52.514;13.192;2023-02-15T08:12:26;24.70;;;16.53;;
9809;SDS011;4944;52.514;13.192;2023-02-15T08:14:54;26.07;;;17.97;;
9809;SDS011;4944;52.514;13.192;2023-02-15T08:17:21;27.67;;;18.03;;
9809;SDS011;4944;52.514;13.192;2023-02-15T08:19:48;25.60;;;17.60;;
9809;SDS011;4944;52.514;13.192;2023-02-15T08:22:15;26.40;;;17.27;;
9809;SDS011;4944;52.514;13.192;2023-02-15T08:24:42;30.53;;;17.10;;
9809;SDS011;4944;52.514;13.192;2023-02-15T08:27:10;27.43;;;18.07;;
9809;SDS011;4944;52.514;13.192;2023-02-15T08:29:37;25.03;;;17.00;;
9809;SDS011;4944;52.514;13.192;2023-02-15T08:32:09;24.53;;;16.53;;
9809;SDS011;4944;52.514;13.192;2023-02-15T08:34:38;28.03;;;18.43;;
9809;SDS011;4944;52.514;13.192;2023-02-15T08:37:07;27.77;;;17.30;;
9809;SDS011;4944;52.514;13.192;2023-02-15T08:39:34;26.70;;;16.80;;
9809;SDS011;4944;52.514;13.192;2023-02-15T08:42:01;24.50;;;16.57;;
9809;SDS011;4944;52.514;13.192;2023-02-15T08:44:29;24.53;;;16.60;;
9809;SDS011;4944;52.514;13.192;2023-02-15T08:46:56;24.63;;;16.70;;
9809;SDS011;4944;52.514;13.192;2023-02-15T08:49:29;24.57;;;16.57;;
9809;SDS011;4944;52.514;13.192;2023-02-15T08:51:56;23.67;;;16.57;;
9809;SDS011;4944;52.514;13.192;2023-02-15T08:54:23;23.77;;;17.00;;
9809;SDS011;4944;52.514;13.192;2023-02-15T08:56:50;23.40;;;16.10;;
9809;SDS011;4944;52.514;13.192;2023-02-15T08:59:20;24.60;;;16.47;;
9809;SDS011;4944;52.514;13.192;2023-02-15T09:02:00;21.37;;;15.27;;
9809;SDS011;4944;52.514;13.192;2023-02-15T09:04:29;23.00;;;16.67;;
9809;SDS011;4944;52.514;13.192;2023-02-15T09:06:56;24.60;;;16.73;;
9809;SDS011;4944;52.514;13.192;2023-02-15T09:09:23;22.97;;;15.90;;
9809;SDS011;4944;52.514;13.192;2023-02-15T09:11:50;23.10;;;17.10;;
9809;SDS011;4944;52.514;13.192;2023-02-15T09:14:18;26.67;;;16.07;;
9809;SDS011;4944;52.514;13.192;2023-02-15T09:16:46;23.30;;;16.03;;
9809;SDS011;4944;52.514;13.192;2023-02-15T09:19:16;23.00;;;16.17;;
9809;SDS011;4944;52.514;13.192;2023-02-15T09:21:45;21.93;;;15.97;;
9809;SDS011;4944;52.514;13.192;2023-02-15T09:24:13;22.03;;;15.70;;
9809;SDS011;4944;52.514;13.192;2023-02-15T09:26:42;20.90;;;15.00;;
9809;SDS011;4944;52.514;13.192;2023-02-15T09:29:10;22.33;;;15.13;;
9809;SDS011;4944;52.514;13.192;2023-02-15T09:31:39;22.63;;;16.13;;
9809;SDS011;4944;52.514;13.192;2023-02-15T09:34:09;24.43;;;15.83;;
9809;SDS011;4944;52.514;13.192;2023-02-15T09:36:37;22.27;;;15.67;;
9809;SDS011;4944;52.514;13.192;2023-02-15T09:39:07;23.63;;;15.77;;
9809;SDS011;4944;52.514;13.192;2023-02-15T09:41:42;22.10;;;15.63;;
9809;SDS011;4944;52.514;13.192;2023-02-15T09:44:30;21.73;;;15.73;;
9809;SDS011;4944;52.514;13.192;2023-02-15T09:47:12;20.60;;;15.50;;
9809;SDS011;4944;52.514;13.192;2023-02-15T09:49:58;22.77;;;15.90;;
9809;SDS011;4944;52.514;13.192;2023-02-15T09:52:33;21.20;;;14.93;;
9809;SDS011;4944;52.514;13.192;2023-02-15T09:55:22;22.20;;;15.40;;
9809;SDS011;4944;52.514;13.192;2023-02-15T09:58:01;27.10;;;16.20;;
9809;SDS011;4944;52.514;13.192;2023-02-15T10:00:37;24.73;;;17.10;;
9809;SDS011;4944;52.514;13.192;2023-02-15T10:03:11;25.23;;;16.70;;
9809;SDS011;4944;52.514;13.192;2023-02-15T10:05:50;24.33;;;15.87;;
9809;SDS011;4944;52.514;13.192;2023-02-15T10:08:32;23.30;;;16.27;;
9809;SDS011;4944;52.514;13.192;2023-02-15T10:11:23;23.13;;;16.13;;
9809;SDS011;4944;52.514;13.192;2023-02-15T10:14:13;23.90;;;16.63;;
9809;SDS011;4944;52.514;13.192;2023-02-15T10:17:04;23.53;;;16.97;;
9809;SDS011;4944;52.514;13.192;2023-02-15T10:19:41;25.17;;;16.50;;
9809;SDS011;4944;52.514;13.192;2023-02-15T10:22:19;23.17;;;16.43;;
9809;SDS011;4944;52.514;13.192;2023-02-15T10:24:56;23.20;;;15.57;;
9809;SDS011;4944;52.514;13.192;2023-02-15T10:27:39;23.57;;;16.77;;
9809;SDS011;4944;52.514;13.192;2023-02-15T10:30:12;23.57;;;16.97;;
9809;SDS011;4944;52.514;13.192;2023-02-15T10:32:40;23.33;;;16.87;;
9809;SDS011;4944;52.514;13.192;2023-02-15T10:35:19;23.37;;;16.60;;
9809;SDS011;4944;52.514;13.192;2023-02-15T10:37:57;24.50;;;17.23;;
9809;SDS011;4944;52.514;13.192;2023-02-15T10:40:45;22.67;;;16.03;;
9809;SDS011;4944;52.514;13.192;2023-02-15T10:43:29;24.23;;;17.07;;
9809;SDS011;4944;52.514;13.192;2023-02-15T10:46:15;26.90;;;18.07;;
9809;SDS011;4944;52.514;13.192;2023-02-15T10:48:55;25.43;;;17.20;;
9809;SDS011;4944;52.514;13.192;2023-02-15T10:51:36;26.40;;;17.27;;
9809;SDS011;4944;52.514;13.192;2023-02-15T10:54:11;26.33;;;18.13;;
9809;SDS011;4944;52.514;13.192;2023-02-15T10:56:49;24.97;;;16.53;;
9809;SDS011;4944;52.514;13.192;2023-02-15T10:59:32;25.53;;;17.23;;
9809;SDS011;4944;52.514;13.192;2023-02-15T11:02:10;27.17;;;18.47;;
9809;SDS011;4944;52.514;13.192;2023-02-15T11:04:51;25.27;;;17.23;;
9809;SDS011;4944;52.514;13.192;2023-02-15T11:07:24;25.40;;;17.37;;
9809;SDS011;4944;52.514;13.192;2023-02-15T11:09:55;26.63;;;18.93;;
9809;SDS011;4944;52.514;13.192;2023-02-15T11:12:27;28.33;;;18.43;;
9809;SDS011;4944;52.514;13.192;2023-02-15T11:15:00;26.73;;;18.83;;
9809;SDS011;4944;52.514;13.192;2023-02-15T11:17:33;25.33;;;18.23;;
9809;SDS011;4944;52.514;13.192;2023-02-15T11:20:07;26.70;;;18.10;;
9809;SDS011;4944;52.514;13.192;2023-02-15T11:22:42;27.73;;;19.17;;
9809;SDS011;4944;52.514;13.192;2023-02-15T11:25:14;25.90;;;18.33;;
9809;SDS011;4944;52.514;13.192;2023-02-15T11:27:45;26.03;;;18.33;;
9809;SDS011;4944;52.514;13.192;2023-02-15T11:32:49;26.73;;;18.20;;
9809;SDS011;4944;52.514;13.192;2023-02-15T11:35:20;26.60;;;18.37;;
9809;SDS011;4944;52.514;13.192;2023-02-15T11:37:53;24.13;;;18.50;;
9809;SDS011;4944;52.514;13.192;2023-02-15T11:40:25;24.33;;;17.97;;
9809;SDS011;4944;52.514;13.192;2023-02-15T11:42:55;24.53;;;17.80;;
9809;SDS011;4944;52.514;13.192;2023-02-15T11:45:27;24.93;;;18.53;;
9809;SDS011;4944;52.514;13.192;2023-02-15T11:47:56;25.07;;;18.50;;
9809;SDS011;4944;52.514;13.192;2023-02-15T11:50:24;24.23;;;18.37;;
9809;SDS011;4944;52.514;13.192;2023-02-15T11:52:56;24.43;;;17.77;;
9809;SDS011;4944;52.514;13.192;2023-02-15T11:55:25;24.20;;;17.60;;
9809;SDS011;4944;52.514;13.192;2023-02-15T11:57:54;23.67;;;18.30;;
9809;SDS011;4944;52.514;13.192;2023-02-15T12:00:32;23.37;;;18.00;;
9809;SDS011;4944;52.514;13.192;2023-02-15T12:03:05;24.70;;;17.67;;
9809;SDS011;4944;52.514;13.192;2023-02-15T12:05:39;21.87;;;17.27;;
9809;SDS011;4944;52.514;13.192;2023-02-15T12:08:11;21.23;;;17.17;;
9809;SDS011;4944;52.514;13.192;2023-02-15T12:10:44;23.37;;;18.03;;
9809;SDS011;4944;52.514;13.192;2023-02-15T12:13:19;21.50;;;17.70;;
9809;SDS011;4944;52.514;13.192;2023-02-15T12:15:49;23.47;;;17.77;;
9809;SDS011;4944;52.514;13.192;2023-02-15T12:18:19;21.80;;;16.77;;
9809;SDS011;4944;52.514;13.192;2023-02-15T12:20:53;21.97;;;17.43;;
9809;SDS011;4944;52.514;13.192;2023-02-15T12:23:25;22.30;;;17.03;;
9809;SDS011;4944;52.514;13.192;2023-02-15T12:25:55;22.63;;;16.97;;
9809;SDS011;4944;52.514;13.192;2023-02-15T12:28:25;23.80;;;16.83;;
9809;SDS011;4944;52.514;13.192;2023-02-15T12:30:57;23.30;;;17.17;;
9809;SDS011;4944;52.514;13.192;2023-02-15T12:33:27;21.50;;;16.27;;
9809;SDS011;4944;52.514;13.192;2023-02-15T12:35:57;20.97;;;15.87;;
9809;SDS011;4944;52.514;13.192;2023-02-15T12:38:27;22.83;;;16.30;;
9809;SDS011;4944;52.514;13.192;2023-02-15T12:40:58;18.93;;;15.67;;
9809;SDS011;4944;52.514;13.192;2023-02-15T12:43:27;21.03;;;16.03;;
9809;SDS011;4944;52.514;13.192;2023-02-15T12:49:06;20.73;;;17.23;;
9809;SDS011;4944;52.514;13.192;2023-02-15T12:51:45;19.80;;;15.53;;
9809;SDS011;4944;52.514;13.192;2023-02-15T12:59:57;19.00;;;15.90;;
9809;SDS011;4944;52.514;13.192;2023-02-15T13:02:30;19.03;;;16.00;;
9809;SDS011;4944;52.514;13.192;2023-02-15T13:05:13;15.90;;;14.17;;
9809;SDS011;4944;52.514;13.192;2023-02-15T13:07:45;18.13;;;15.23;;
9809;SDS011;4944;52.514;13.192;2023-02-15T13:10:25;18.70;;;15.80;;
9809;SDS011;4944;52.514;13.192;2023-02-15T13:12:54;17.73;;;14.67;;
9809;SDS011;4944;52.514;13.192;2023-02-15T13:15:27;17.70;;;15.47;;
9809;SDS011;4944;52.514;13.192;2023-02-15T13:18:02;17.77;;;14.20;;
9809;SDS011;4944;52.514;13.192;2023-02-15T13:20:31;19.00;;;15.23;;
9809;SDS011;4944;52.514;13.192;2023-02-15T13:23:02;18.43;;;14.77;;
9809;SDS011;4944;52.514;13.192;2023-02-15T13:25:32;18.83;;;13.93;;
9809;SDS011;4944;52.514;13.192;2023-02-15T13:28:10;18.67;;;15.20;;
9809;SDS011;4944;52.514;13.192;2023-02-15T13:30:42;16.80;;;14.20;;
9809;SDS011;4944;52.514;13.192;2023-02-15T13:33:13;17.80;;;14.43;;
9809;SDS011;4944;52.514;13.192;2023-02-15T13:35:47;18.57;;;14.93;;
9809;SDS011;4944;52.514;13.192;2023-02-15T13:38:25;18.87;;;15.47;;
9809;SDS011;4944;52.514;13.192;2023-02-15T13:41:09;17.00;;;13.53;;
9809;SDS011;4944;52.514;13.192;2023-02-15T13:43:41;16.87;;;13.90;;
9809;SDS011;4944;52.514;13.192;2023-02-15T13:46:20;16.57;;;14.10;;
9809;SDS011;4944;52.514;13.192;2023-02-15T13:48:58;17.07;;;13.53;;
9809;SDS011;4944;52.514;13.192;2023-02-15T13:51:40;14.77;;;12.77;;
9809;SDS011;4944;52.514;13.192;2023-02-15T13:57:23;13.77;;;12.27;;
9809;SDS011;4944;52.514;13.192;2023-02-15T14:00:11;17.03;;;13.53;;
9809;SDS011;4944;52.514;13.192;2023-02-15T14:02:52;16.03;;;13.40;;
9809;SDS011;4944;52.514;13.192;2023-02-15T14:09:02;16.97;;;13.10;;
9809;SDS011;4944;52.514;13.192;2023-02-15T14:11:41;14.73;;;12.77;;
9809;SDS011;4944;52.514;13.192;2023-02-15T14:14:31;14.87;;;12.53;;
9809;SDS011;4944;52.514;13.192;2023-02-15T14:17:11;13.67;;;11.93;;
9809;SDS011;4944;52.514;13.192;2023-02-15T14:19:47;14.17;;;12.53;;
9809;SDS011;4944;52.514;13.192;2023-02-15T14:22:18;14.37;;;12.87;;
9809;SDS011;4944;52.514;13.192;2023-02-15T14:25:03;14.43;;;12.13;;
9809;SDS011;4944;52.514;13.192;2023-02-15T14:27:44;14.23;;;11.83;;
9809;SDS011;4944;52.514;13.192;2023-02-15T14:30:19;13.50;;;12.07;;
9809;SDS011;4944;52.514;13.192;2023-02-15T14:32:50;14.50;;;12.33;;
9809;SDS011;4944;52.514;13.192;2023-02-15T14:35:20;15.43;;;13.13;;
9809;SDS011;4944;52.514;13.192;2023-02-15T14:37:50;14.93;;;11.87;;
9809;SDS011;4944;52.514;13.192;2023-02-15T14:40:29;14.10;;;12.50;;
9809;SDS011;4944;52.514;13.192;2023-02-15T14:43:19;15.93;;;12.37;;
9809;SDS011;4944;52.514;13.192;2023-02-15T14:45:58;14.13;;;12.47;;
9809;SDS011;4944;52.514;13.192;2023-02-15T14:48:36;16.97;;;13.03;;
9809;SDS011;4944;52.514;13.192;2023-02-15T14:51:05;13.87;;;12.37;;
9809;SDS011;4944;52.514;13.192;2023-02-15T14:53:33;14.40;;;12.10;;
9809;SDS011;4944;52.514;13.192;2023-02-15T14:58:59;13.57;;;12.17;;
9809;SDS011;4944;52.514;13.192;2023-02-15T15:01:38;13.23;;;10.97;;
9809;SDS011;4944;52.514;13.192;2023-02-15T15:04:08;13.47;;;11.40;;
9809;SDS011;4944;52.514;13.192;2023-02-15T15:06:38;14.33;;;12.30;;
9809;SDS011;4944;52.514;13.192;2023-02-15T15:09:12;13.70;;;12.17;;
9809;SDS011;4944;52.514;13.192;2023-02-15T15:11:47;13.13;;;11.83;;
9809;SDS011;4944;52.514;13.192;2023-02-15T15:17:05;14.10;;;11.30;;
9809;SDS011;4944;52.514;13.192;2023-02-15T15:22:39;14.03;;;12.23;;
9809;SDS011;4944;52.514;13.192;2023-02-15T15:28:11;14.50;;;11.77;;
9809;SDS011;4944;52.514;13.192;2023-02-15T15:31:17;13.40;;;11.00;;
9809;SDS011;4944;52.514;13.192;2023-02-15T15:43:28;12.17;;;10.87;;
9809;SDS011;4944;52.514;13.192;2023-02-15T15:46:32;12.80;;;10.97;;
9809;SDS011;4944;52.514;13.192;2023-02-15T15:49:19;14.27;;;11.63;;
9809;SDS011;4944;52.514;13.192;2023-02-15T15:51:47;13.83;;;11.60;;